createdAt,value
2018-12-13T17:24:20.682Z,25.80
2018-12-13T17:25:20.662Z,37.60
2018-12-13T17:26:20.648Z,27.40
2018-12-13T17:27:20.638Z,21.00
2018-12-13T17:28:20.630Z,22.00
2018-12-13T17:29:20.617Z,21.90
2018-12-13T17:30:20.659Z,16.10
2018-12-13T17:31:20.604Z,19.00
2018-12-13T17:32:20.596Z,19.60
2018-12-13T17:33:20.579Z,16.60
2018-12-13T17:34:20.593Z,17.60
2018-12-13T17:35:20.560Z,17.30
2018-12-13T17:36:20.861Z,18.90
2018-12-13T17:37:20.540Z,16.60
2018-12-13T17:38:20.524Z,16.70
2018-12-13T17:39:20.580Z,26.00
2018-12-13T17:40:23.194Z,20.60
2018-12-13T17:41:20.497Z,17.60
2018-12-13T17:42:20.862Z,17.60
2018-12-13T17:43:20.473Z,16.90
2018-12-13T17:44:20.465Z,18.20
2018-12-13T17:45:20.481Z,19.00
2018-12-13T17:46:20.444Z,18.90
2018-12-13T17:47:20.432Z,18.40
2018-12-13T17:48:20.856Z,22.10
2018-12-13T17:49:20.414Z,18.30
2018-12-13T17:50:20.401Z,18.50
2018-12-13T17:51:20.419Z,20.50
2018-12-13T17:52:20.380Z,22.40
2018-12-13T17:53:20.371Z,19.90
2018-12-13T17:54:20.383Z,20.30
2018-12-13T17:55:20.351Z,19.20
2018-12-13T17:56:20.341Z,19.30
2018-12-13T17:57:20.352Z,20.70
2018-12-13T17:58:20.321Z,20.90
2018-12-13T17:59:20.311Z,20.10
2018-12-13T18:00:20.400Z,18.50
2018-12-13T18:01:20.289Z,18.40
2018-12-13T18:02:20.277Z,20.80
2018-12-13T18:03:20.294Z,17.30
2018-12-13T18:04:20.258Z,19.50
2018-12-13T18:05:20.247Z,18.10
2018-12-13T18:06:20.304Z,24.70
2018-12-13T18:07:20.360Z,21.60
2018-12-13T18:08:20.221Z,19.60
2018-12-13T18:09:20.210Z,19.00
2018-12-13T18:10:20.267Z,23.90
2018-12-13T18:11:20.221Z,23.50
2018-12-13T18:12:20.354Z,20.20
2018-12-13T18:13:20.167Z,22.70
2018-12-13T18:14:20.200Z,20.50
2018-12-13T18:15:20.145Z,20.10
2018-12-13T18:16:20.136Z,19.50
2018-12-13T18:17:20.121Z,18.90
2018-12-13T18:18:20.210Z,17.20
2018-12-13T18:19:20.138Z,16.70
2018-12-13T18:20:20.136Z,17.10
2018-12-13T18:21:20.165Z,16.60
2018-12-13T18:22:20.070Z,19.80
2018-12-13T18:23:20.085Z,17.30
2018-12-13T18:24:20.066Z,18.20
2018-12-13T18:25:20.040Z,18.40
2018-12-13T18:26:20.044Z,23.20
2018-12-13T18:27:20.019Z,20.60
2018-12-13T18:28:20.015Z,18.00
2018-12-13T18:29:19.998Z,19.90
2018-12-13T18:30:20.003Z,19.30
2018-12-13T18:31:19.992Z,17.50
2018-12-13T18:32:19.965Z,17.70
2018-12-13T18:33:19.957Z,15.40
2018-12-13T18:34:19.952Z,16.20
2018-12-13T18:35:19.942Z,18.60
2018-12-13T18:36:19.941Z,15.90
2018-12-13T18:37:19.930Z,17.40
2018-12-13T18:38:19.906Z,19.00
2018-12-13T18:39:19.896Z,16.10
2018-12-13T18:40:19.886Z,18.10
2018-12-13T18:41:19.873Z,15.50
2018-12-13T18:42:20.349Z,14.20
2018-12-13T18:43:19.888Z,15.40
2018-12-13T18:44:19.847Z,16.60
2018-12-13T18:45:19.840Z,15.90
2018-12-13T18:46:19.820Z,19.00
2018-12-13T18:47:19.811Z,14.70
2018-12-13T18:48:19.816Z,17.70
2018-12-13T18:49:19.813Z,19.30
2018-12-13T18:50:19.784Z,16.50
2018-12-13T18:51:19.768Z,19.10
2018-12-13T18:52:19.757Z,17.80
2018-12-13T18:53:19.747Z,13.50
2018-12-13T18:54:19.766Z,17.50
2018-12-13T18:55:19.745Z,18.60
2018-12-13T18:56:19.715Z,18.30
2018-12-13T18:57:19.708Z,17.50
2018-12-13T18:58:19.718Z,17.60
2018-12-13T18:59:19.723Z,16.20
2018-12-13T19:00:19.693Z,16.90
2018-12-13T19:01:19.662Z,19.00
2018-12-13T19:02:19.685Z,15.80
2018-12-13T19:03:19.644Z,17.40
2018-12-13T19:04:19.686Z,18.60
2018-12-13T19:05:19.622Z,17.80
2018-12-13T19:06:19.854Z,17.20
2018-12-13T19:07:19.605Z,17.00
2018-12-13T19:08:19.591Z,16.80
2018-12-13T19:09:19.612Z,15.50
2018-12-13T19:10:19.569Z,20.30
2018-12-13T19:11:19.559Z,17.20
2018-12-13T19:12:19.842Z,16.30
2018-12-13T19:13:19.541Z,15.20
2018-12-13T19:14:19.529Z,16.80
2018-12-13T19:15:19.550Z,18.10
2018-12-13T19:16:19.513Z,20.20
2018-12-13T19:17:19.500Z,16.00
2018-12-13T19:18:19.504Z,18.60
2018-12-13T19:19:19.478Z,17.00
2018-12-13T19:20:19.468Z,15.80
2018-12-13T19:21:19.481Z,14.70
2018-12-13T19:22:19.445Z,17.00
2018-12-13T19:23:19.456Z,28.50
2018-12-13T19:24:19.441Z,16.80
2018-12-13T19:25:19.418Z,17.60
2018-12-13T19:26:19.404Z,17.40
2018-12-13T19:27:19.439Z,14.30
2018-12-13T19:28:19.388Z,16.70
2018-12-13T19:29:19.376Z,14.40
2018-12-13T19:30:19.385Z,14.10
2018-12-13T19:31:19.351Z,12.00
2018-12-13T19:32:19.361Z,10.10
2018-12-13T19:33:19.331Z,11.20
2018-12-13T19:34:19.320Z,14.10
2018-12-13T19:35:19.550Z,10.10
2018-12-13T19:36:19.313Z,15.00
2018-12-13T19:37:19.288Z,12.50
2018-12-13T19:38:19.324Z,14.60
2018-12-13T19:39:19.268Z,13.90
2018-12-13T19:40:19.255Z,16.10
2018-12-13T19:41:19.250Z,16.00
2018-12-13T19:42:19.345Z,16.40
2018-12-13T19:43:19.267Z,16.30
2018-12-13T19:44:19.215Z,16.00
2018-12-13T19:45:19.207Z,19.00
2018-12-13T19:46:19.190Z,15.30
2018-12-13T19:47:19.228Z,16.70
2018-12-13T19:48:19.349Z,16.40
2018-12-13T19:49:19.195Z,19.50
2018-12-13T19:50:19.148Z,20.20
2018-12-13T19:51:19.143Z,19.80
2018-12-13T19:52:19.128Z,18.70
2018-12-13T19:53:19.118Z,17.10
2018-12-13T19:54:19.124Z,17.60
2018-12-13T19:55:19.126Z,18.60
2018-12-13T19:56:19.088Z,18.90
2018-12-13T19:57:19.080Z,17.30
2018-12-13T19:58:19.073Z,19.20
2018-12-13T19:59:19.055Z,19.10
2018-12-13T20:00:19.062Z,24.70
2018-12-13T20:01:19.083Z,22.80
2018-12-13T20:02:19.023Z,19.90
2018-12-13T20:03:19.015Z,23.40
2018-12-13T20:04:19.007Z,22.00
2018-12-13T20:05:18.995Z,21.90
2018-12-13T20:06:18.997Z,21.80
2018-12-13T20:07:19.010Z,20.90
2018-12-13T20:08:19.009Z,17.80
2018-12-13T20:09:18.951Z,16.50
2018-12-13T20:10:18.939Z,19.50
2018-12-13T20:11:18.929Z,22.50
2018-12-13T20:12:19.339Z,21.80
2018-12-13T20:13:18.928Z,19.50
2018-12-13T20:14:18.897Z,18.30
2018-12-13T20:15:24.047Z,22.20
2018-12-13T20:16:19.874Z,21.40
2018-12-13T20:17:18.864Z,22.60
2018-12-13T20:18:18.871Z,20.10
2018-12-13T20:19:18.875Z,18.70
2018-12-13T20:20:18.836Z,21.40
2018-12-13T20:21:18.827Z,21.00
2018-12-13T20:22:18.812Z,24.00
2018-12-13T20:23:18.811Z,22.70
2018-12-13T20:24:18.810Z,22.70
2018-12-13T20:25:18.814Z,21.70
2018-12-13T20:26:18.771Z,21.20
2018-12-13T20:27:18.763Z,23.10
2018-12-13T20:28:18.753Z,21.70
2018-12-13T20:29:18.743Z,20.00
2018-12-13T20:30:18.754Z,22.70
2018-12-13T20:31:18.744Z,24.70
2018-12-13T20:32:18.712Z,23.80
2018-12-13T20:33:18.697Z,20.90
2018-12-13T20:34:18.689Z,23.00
2018-12-13T20:35:18.681Z,22.80
2018-12-13T20:36:18.684Z,23.00
2018-12-13T20:37:18.677Z,22.80
2018-12-13T20:38:18.648Z,24.40
2018-12-13T20:39:18.637Z,23.60
2018-12-13T20:40:18.625Z,24.60
2018-12-13T20:41:18.616Z,21.60
2018-12-13T20:42:18.846Z,24.20
2018-12-13T20:43:18.606Z,21.40
2018-12-13T20:44:18.583Z,20.90
2018-12-13T20:45:18.573Z,25.00
2018-12-13T20:46:18.565Z,23.70
2018-12-13T20:47:18.554Z,21.90
2018-12-13T20:48:18.834Z,21.90
2018-12-13T20:49:18.565Z,24.10
2018-12-13T20:50:18.521Z,21.20
2018-12-13T20:51:18.510Z,24.60
2018-12-13T20:52:18.500Z,25.80
2018-12-13T20:53:18.488Z,24.70
2018-12-13T20:54:18.498Z,25.30
2018-12-13T20:55:18.500Z,25.80
2018-12-13T20:56:18.458Z,24.00
2018-12-13T20:57:18.449Z,25.20
2018-12-13T20:58:18.440Z,27.30
2018-12-13T20:59:18.431Z,24.50
2018-12-13T21:00:18.452Z,21.90
2018-12-13T21:01:18.449Z,27.00
2018-12-13T21:02:18.421Z,23.00
2018-12-13T21:03:18.384Z,26.50
2018-12-13T21:04:18.378Z,23.10
2018-12-13T21:05:18.364Z,25.50
2018-12-13T21:06:18.383Z,24.00
2018-12-13T21:07:18.379Z,20.50
2018-12-13T21:08:18.840Z,22.30
2018-12-13T21:09:18.322Z,26.10
2018-12-13T21:10:18.312Z,28.00
2018-12-13T21:11:18.303Z,22.90
2018-12-13T21:12:18.292Z,22.90
2018-12-13T21:13:18.343Z,26.80
2018-12-13T21:14:18.271Z,26.50
2018-12-13T21:15:18.262Z,25.40
2018-12-13T21:16:18.251Z,25.70
2018-12-13T21:17:18.242Z,26.90
2018-12-13T21:18:18.233Z,29.10
2018-12-13T21:19:18.268Z,26.10
2018-12-13T21:20:18.208Z,27.10
2018-12-13T21:21:18.266Z,25.40
2018-12-13T21:22:18.189Z,24.80
2018-12-13T21:23:18.179Z,25.50
2018-12-13T21:24:18.167Z,25.60
2018-12-13T21:25:18.210Z,30.30
2018-12-13T21:26:18.149Z,28.10
2018-12-13T21:27:18.135Z,27.30
2018-12-13T21:28:18.130Z,26.90
2018-12-13T21:29:18.114Z,29.20
2018-12-13T21:30:18.135Z,27.40
2018-12-13T21:31:18.137Z,28.10
2018-12-13T21:32:18.085Z,26.50
2018-12-13T21:33:18.293Z,28.90
2018-12-13T21:34:18.063Z,32.20
2018-12-13T21:35:18.056Z,25.80
2018-12-13T21:36:18.048Z,24.20
2018-12-13T21:37:18.074Z,28.20
2018-12-13T21:38:18.025Z,30.80
2018-12-13T21:39:18.010Z,28.50
2018-12-13T21:40:18.000Z,28.30
2018-12-13T21:41:17.998Z,28.60
2018-12-13T21:42:17.982Z,21.20
2018-12-13T21:43:18.024Z,24.90
2018-12-13T21:44:17.961Z,26.80
2018-12-13T21:45:17.950Z,29.80
2018-12-13T21:46:17.939Z,27.80
2018-12-13T21:47:17.947Z,27.40
2018-12-13T21:48:17.919Z,24.70
2018-12-13T21:49:17.943Z,22.50
2018-12-13T21:50:17.898Z,26.40
2018-12-13T21:51:17.892Z,27.10
2018-12-13T21:52:17.878Z,24.00
2018-12-13T21:53:17.869Z,23.40
2018-12-13T21:54:17.903Z,28.10
2018-12-13T21:55:17.887Z,33.60
2018-12-13T21:56:17.834Z,32.60
2018-12-13T21:57:17.828Z,32.50
2018-12-13T21:58:17.821Z,30.30
2018-12-13T21:59:17.811Z,34.60
2018-12-13T22:00:17.795Z,26.90
2018-12-13T22:01:17.840Z,28.30
2018-12-13T22:02:17.780Z,25.10
2018-12-13T22:03:17.764Z,26.70
2018-12-13T22:04:17.752Z,32.50
2018-12-13T22:05:17.744Z,28.30
2018-12-13T22:06:17.732Z,26.10
2018-12-13T22:07:17.770Z,26.90
2018-12-13T22:08:17.713Z,32.50
2018-12-13T22:09:17.703Z,35.40
2018-12-13T22:10:17.690Z,35.90
2018-12-13T22:11:20.040Z,36.80
2018-12-13T22:12:17.708Z,34.40
2018-12-13T22:13:17.713Z,42.00
2018-12-13T22:14:17.663Z,43.50
2018-12-13T22:15:17.858Z,29.10
2018-12-13T22:16:17.630Z,37.10
2018-12-13T22:17:17.621Z,31.40
2018-12-13T22:18:17.620Z,35.40
2018-12-13T22:19:17.645Z,32.10
2018-12-13T22:20:17.597Z,44.30
2018-12-13T22:21:17.578Z,37.90
2018-12-13T22:22:17.567Z,36.60
2018-12-13T22:23:17.556Z,31.90
2018-12-13T22:24:17.564Z,40.20
2018-12-13T22:25:17.558Z,32.10
2018-12-13T22:26:17.527Z,35.70
2018-12-13T22:27:17.517Z,37.40
2018-12-13T22:28:17.523Z,35.00
2018-12-13T22:29:17.499Z,31.90
2018-12-13T22:30:17.827Z,33.90
2018-12-13T22:31:17.494Z,31.90
2018-12-13T22:32:17.465Z,36.40
2018-12-13T22:33:17.456Z,40.00
2018-12-13T22:34:17.444Z,33.20
2018-12-13T22:35:17.434Z,28.80
2018-12-13T22:36:17.435Z,32.20
2018-12-13T22:37:17.423Z,32.20
2018-12-13T22:38:17.401Z,30.00
2018-12-13T22:39:17.407Z,27.70
2018-12-13T22:40:17.381Z,25.90
2018-12-13T22:41:17.370Z,30.10
2018-12-13T22:42:17.360Z,28.40
2018-12-13T22:43:20.517Z,27.90
2018-12-13T22:44:17.357Z,27.90
2018-12-13T22:45:17.328Z,30.30
2018-12-13T22:46:17.318Z,28.20
2018-12-13T22:47:17.309Z,28.40
2018-12-13T22:48:17.298Z,35.70
2018-12-13T22:49:17.334Z,29.10
2018-12-13T22:50:17.279Z,27.00
2018-12-13T22:51:17.266Z,28.40
2018-12-13T22:52:17.259Z,30.00
2018-12-13T22:53:17.246Z,27.00
2018-12-13T22:54:17.275Z,30.40
2018-12-13T22:55:17.250Z,29.10
2018-12-13T22:56:17.216Z,27.70
2018-12-13T22:57:17.420Z,28.30
2018-12-13T22:58:17.193Z,28.50
2018-12-13T22:59:17.242Z,31.10
2018-12-13T23:00:17.174Z,25.20
2018-12-13T23:01:17.195Z,28.90
2018-12-13T23:02:17.155Z,27.90
2018-12-13T23:03:17.144Z,31.50
2018-12-13T23:04:17.244Z,29.30
2018-12-13T23:05:17.119Z,27.20
2018-12-13T23:06:17.109Z,25.80
2018-12-13T23:07:17.134Z,29.40
2018-12-13T23:08:17.089Z,26.50
2018-12-13T23:09:17.078Z,27.50
2018-12-13T23:10:17.119Z,25.90
2018-12-13T23:11:17.059Z,24.90
2018-12-13T23:12:17.048Z,26.50
2018-12-13T23:13:17.057Z,31.60
2018-12-13T23:14:17.098Z,24.90
2018-12-13T23:15:17.015Z,26.90
2018-12-13T23:16:17.021Z,27.60
2018-12-13T23:17:16.994Z,28.60
2018-12-13T23:18:17.208Z,26.20
2018-12-13T23:19:17.028Z,26.80
2018-12-13T23:20:16.965Z,30.30
2018-12-13T23:21:16.976Z,26.90
2018-12-13T23:22:16.944Z,25.50
2018-12-13T23:23:16.930Z,25.00
2018-12-13T23:24:16.982Z,27.30
2018-12-13T23:25:16.942Z,27.80
2018-12-13T23:26:16.910Z,30.30
2018-12-13T23:27:16.909Z,24.50
2018-12-13T23:28:16.879Z,24.70
2018-12-13T23:29:16.882Z,26.30
2018-12-13T23:30:16.878Z,24.00
2018-12-13T23:31:16.853Z,30.00
2018-12-13T23:32:16.849Z,29.90
2018-12-13T23:33:16.837Z,26.80
2018-12-13T23:34:16.835Z,26.80
2018-12-13T23:35:16.804Z,24.30
2018-12-13T23:36:16.811Z,29.00
2018-12-13T23:37:16.833Z,27.20
2018-12-13T23:38:16.781Z,27.10
2018-12-13T23:39:16.982Z,26.40
2018-12-13T23:40:16.766Z,26.30
2018-12-13T23:41:16.741Z,30.30
2018-12-13T23:42:16.759Z,25.00
2018-12-13T23:43:17.288Z,30.70
2018-12-13T23:44:16.713Z,28.80
2018-12-13T23:45:16.705Z,27.80
2018-12-13T23:46:16.821Z,28.30
2018-12-13T23:47:16.678Z,30.70
2018-12-13T23:48:16.703Z,28.10
2018-12-13T23:49:16.657Z,29.10
2018-12-13T23:50:16.663Z,28.60
2018-12-13T23:51:16.641Z,30.00
2018-12-13T23:52:16.814Z,29.50
2018-12-13T23:53:16.616Z,34.10
2018-12-13T23:54:16.628Z,27.90
2018-12-13T23:55:16.635Z,28.50
2018-12-13T23:56:16.620Z,30.50
2018-12-13T23:57:16.574Z,33.10
2018-12-13T23:58:16.578Z,28.40
2018-12-13T23:59:16.571Z,26.00
